Terminal Aerodrome Forecast
Issued by NWS

Home | Current Version | Previous Version | Text Only | Print | Product List | Glossary On
Versions: 1 2 3 4 5 6 7 8 9 10 11 12 13
000
FTAK31 PAJN 260527
TAFAKT
TAF
PAKT 260527Z 2606/2706 VRB05KT P6SM SCT030 BKN050
     FM261200 14007KT P6SM -RA BKN025 OVC035
     FM262000 13009KT 6SM -RA BR SCT015 OVC025
     FM270000 15012KT 4SM -RA BR BKN015 OVC025
      AMD LTD TO CLD VIS AND WIND 2606/2615=

USA.gov is the U.S. government's official web portal to all federal, state and local government web resources and services.